Koszalin, Poland
Current Conditions -  °F | °C
As of 9:20 PM on Monday 22 Dec 2014 (Local Time) from EKRN Reporting Station
Broken Clouds Broken Clouds  
Wind Chill: 36°   Ceiling: 15000
Heat Index: 45°   Visibility: 6mi
Dew Point: 43°   Wind: 24mph
Humidity: 93%   Direction: 270°W
Pressure: 29.56"   Gusts: NA
Location:  54.19°N, 16.18°E
Report Text: EKRN 221920Z AUTO 27021KT 9999NDV FEW049/// BKN150///07/06 Q1001
Loading
Personal Weather Stations






























Interactive Weather Map New forecast layout! Learn more

10-Day Weather Forecast

Advertisements
Track Severe Weather on mobile